Roanoke — WDD9656 — position and weather

sailwx.info

Track history (hours):
 
Tides and Currents Weather Stations Pressure Air Temp Water Temp Dewpoint Dewpoint Depression Visibility Wind Speed Wind Dir Waves Ship Positions

Roanoke

Owner: Vane Line Bunkering, Baltimore, MD. More information available from US FCC via Universal Licensing System and Coast Guard Vessel Documentation Center.

Last reported at 2016-Sep-25 11:33 UTC. Time now 2016-Sep-25 12:21 UTC.
Position N 39°54' W 075°12'.

Length 32 m; draft 13 m.

Type: Towing. MMSI: 367314510.

Date/timePositionNaut miles runAvg speedWind from/ knotsBaromVisibWave heightAir tempDewpointWater temp
2016-Sep-25 11:33N 39°54' W 075°12'0 0.0
2016-Sep-25 10:33N 39°54' W 075°12'0 0.0
2016-Sep-25 09:33N 39°54' W 075°12'8 4.1
2016-Sep-25 07:33N 39°50' W 075°21'3 1.1
2016-Sep-25 04:33N 39°48' W 075°25'0 0.1
2016-Sep-25 00:33N 39°48' W 075°25'0 0.0
2016-Sep-24 22:33N 39°48' W 075°25'0 0.0
2016-Sep-24 21:32N 39°48' W 075°25'0 0.1
2016-Sep-24 19:33N 39°48' W 075°24'1 0.9
2016-Sep-24 18:33N 39°49' W 075°24'7 7.5
2016-Sep-24 17:33N 39°51' W 075°15'3 3.1
2016-Sep-24 16:33N 39°54' W 075°12'0 0.0
2016-Sep-24 14:33N 39°54' W 075°12'0 0.0
2016-Sep-24 12:33N 39°54' W 075°12'2 0.8
2016-Sep-24 10:33N 39°55' W 075°13'0 0.0
2016-Sep-24 09:33N 39°55' W 075°13'1 0.2
2016-Sep-24 03:33N 39°54' W 075°12'0 0.0
2016-Sep-24 02:33N 39°54' W 075°12'0 0.0
2016-Sep-24 01:33N 39°54' W 075°12'1 0.7
2016-Sep-24 00:33N 39°54' W 075°12'0 0.0
2016-Sep-23 19:33N 39°54' W 075°12'0 0.0
2016-Sep-23 17:33N 39°53' W 075°12'0 0.0
2016-Sep-23 16:33N 39°54' W 075°12'0 0.3
2016-Sep-23 15:33N 39°54' W 075°12'0 0.2
2016-Sep-23 13:33N 39°54' W 075°12'0 0.0
2016-Sep-23 09:33N 39°54' W 075°12'10 3.3
2016-Sep-23 06:33N 39°49' W 075°24'0 0.0
2016-Sep-23 04:33N 39°49' W 075°24'0 0.0
2016-Sep-23 03:33N 39°49' W 075°24'0 0.0
2016-Sep-23 02:32N 39°49' W 075°24'0 0.0
2016-Sep-23 01:34N 39°49' W 075°24'2 1.6
2016-Sep-23 00:32N 39°48' W 075°26'0 0.0
2016-Sep-22 23:33N 39°48' W 075°26'0 0.1
2016-Sep-22 20:33N 39°48' W 075°26'12 1.5
2016-Sep-22 12:33N 39°54' W 075°12'1 0.2
2016-Sep-22 04:33N 39°55' W 075°13'1 1.0
2016-Sep-22 03:34N 39°54' W 075°13'3 1.0
2016-Sep-22 00:30N 39°54' W 075°08'2 2.0
2016-Sep-21 23:33N 39°56' W 075°08'4 4.4
2016-Sep-21 22:33N 39°59' W 075°04'1 0.2
2016-Sep-21 19:33N 39°59' W 075°05'0 0.0
2016-Sep-21 16:33N 39°59' W 075°05'25 3.6
2016-Sep-21 09:33N 39°43' W 075°31'0 0.0
2016-Sep-21 08:33N 39°43' W 075°31'0 0.0
2016-Sep-21 05:33N 39°43' W 075°31'0 0.0
2016-Sep-21 03:33N 39°43' W 075°31'0 0.0
2016-Sep-21 02:33N 39°43' W 075°31'7 0.8
2016-Sep-20 17:33N 39°48' W 075°25'12 3.9
2016-Sep-20 14:33N 39°53' W 075°11'2 2.1
2016-Sep-20 13:33N 39°54' W 075°08'0 0.0
2016-Sep-20 10:33N 39°54' W 075°08'0 0.0
2016-Sep-20 08:33N 39°54' W 075°08'0 0.0
2016-Sep-20 07:33N 39°54' W 075°08'0 0.0
2016-Sep-20 06:33N 39°54' W 075°08'0 0.0
2016-Sep-20 02:33N 39°54' W 075°08'5 1.6
2016-Sep-19 23:33N 39°52' W 075°14'5 1.2
2016-Sep-19 19:33N 39°54' W 075°09'0 0.0
2016-Sep-19 18:33N 39°54' W 075°09'0 0.0
2016-Sep-19 16:33N 39°54' W 075°09'0 0.0
2016-Sep-19 14:34N 39°54' W 075°09'0 0.0
2016-Sep-19 13:33N 39°54' W 075°09'0 0.0
2016-Sep-19 12:33N 39°54' W 075°09'0 0.0
2016-Sep-19 11:33N 39°54' W 075°09'0 0.0
2016-Sep-19 09:33N 39°54' W 075°09'2 1.2
2016-Sep-19 07:33N 39°53' W 075°12'1 0.6
2016-Sep-19 06:33N 39°54' W 075°12'0 0.0
2016-Sep-19 03:33N 39°54' W 075°12'0 0.0
2016-Sep-19 02:33N 39°54' W 075°12'0 0.0
2016-Sep-19 00:33N 39°54' W 075°12'2 0.3
2016-Sep-18 19:33N 39°55' W 075°13'4 0.9
2016-Sep-18 15:34N 39°54' W 075°08'7 6.6
2016-Sep-18 14:34N 39°51' W 075°16'29 7.2
2016-Sep-18 10:33N 39°32' W 075°45'9 8.7
2016-Sep-18 09:33N 39°30' W 075°56'34 4.8
2016-Sep-18 02:30N 39°15' W 076°34'0 0.0
2016-Sep-18 01:30N 39°15' W 076°34'0 0.0
2016-Sep-18 00:30N 39°15' W 076°34'0 0.0
2016-Sep-17 22:30N 39°15' W 076°34'0 0.0
2016-Sep-17 21:30N 39°15' W 076°34'0 0.0
2016-Sep-17 20:33N 39°15' W 076°34'0 0.0
2016-Sep-17 19:15N 39°15' W 076°34'6 1.0
2016-Sep-17 13:31N 39°11' W 076°28'7 7.4
2016-Sep-17 12:33N 39°09' W 076°20'14 7.0
2016-Sep-17 10:33N 39°21' W 076°10'8 7.7
2016-Sep-17 09:33N 39°25' W 076°02'8 8.0
2016-Sep-17 08:33N 39°30' W 075°55'8 8.5
2016-Sep-17 07:34N 39°32' W 075°44'14 6.9
2016-Sep-17 05:33N 39°42' W 075°31'7 6.9
2016-Sep-17 04:34N 39°48' W 075°26'19 4.8
2016-Sep-17 00:33N 39°59' W 075°06'7 1.0
2016-Sep-16 17:33N 39°53' W 075°11'0 0.0
2016-Sep-16 15:33N 39°53' W 075°11'0 0.0
2016-Sep-16 12:33N 39°53' W 075°11'1 0.2
2016-Sep-16 09:33N 39°54' W 075°12'0 0.0
2016-Sep-16 07:33N 39°54' W 075°12'2 0.5
2016-Sep-16 03:33N 39°53' W 075°09'2 2.0
2016-Sep-16 02:33N 39°54' W 075°12'0 0.0
2016-Sep-16 00:33N 39°54' W 075°12'0 0.0
2016-Sep-15 22:33N 39°54' W 075°12'0 0.0
2016-Sep-15 21:33N 39°54' W 075°12'0 0.0
2016-Sep-15 20:33N 39°54' W 075°12'1 0.3
2016-Sep-15 18:33N 39°54' W 075°12'1 0.1
2016-Sep-15 12:33N 39°54' W 075°12'  
Track history (hours):
 
Tides and Currents Weather Stations Pressure Air Temp Water Temp Dewpoint Dewpoint Depression Visibility Wind Speed Wind Dir Waves Ship Positions

Roanoke

Owner: Vane Line Bunkering, Baltimore, MD. More information available from US FCC via Universal Licensing System and Coast Guard Vessel Documentation Center.

Last reported at 2016-Sep-25 11:33 UTC. Time now 2016-Sep-25 12:21 UTC.
Position N 39°54' W 075°12'.

Length 32 m; draft 13 m.

Type: Towing. MMSI: 367314510.

Date/timePositionNaut miles runAvg speedWind from/ knotsBaromVisibWave heightAir tempDewpointWater temp
2016-Sep-25 11:33N 39°54' W 075°12'0 0.0
2016-Sep-25 10:33N 39°54' W 075°12'0 0.0
2016-Sep-25 09:33N 39°54' W 075°12'8 4.1
2016-Sep-25 07:33N 39°50' W 075°21'3 1.1
2016-Sep-25 04:33N 39°48' W 075°25'0 0.1
2016-Sep-25 00:33N 39°48' W 075°25'0 0.0
2016-Sep-24 22:33N 39°48' W 075°25'0 0.0
2016-Sep-24 21:32N 39°48' W 075°25'0 0.1
2016-Sep-24 19:33N 39°48' W 075°24'1 0.9
2016-Sep-24 18:33N 39°49' W 075°24'7 7.5
2016-Sep-24 17:33N 39°51' W 075°15'3 3.1
2016-Sep-24 16:33N 39°54' W 075°12'0 0.0
2016-Sep-24 14:33N 39°54' W 075°12'0 0.0
2016-Sep-24 12:33N 39°54' W 075°12'2 0.8
2016-Sep-24 10:33N 39°55' W 075°13'0 0.0
2016-Sep-24 09:33N 39°55' W 075°13'1 0.2
2016-Sep-24 03:33N 39°54' W 075°12'0 0.0
2016-Sep-24 02:33N 39°54' W 075°12'0 0.0
2016-Sep-24 01:33N 39°54' W 075°12'1 0.7
2016-Sep-24 00:33N 39°54' W 075°12'0 0.0
2016-Sep-23 19:33N 39°54' W 075°12'0 0.0
2016-Sep-23 17:33N 39°53' W 075°12'0 0.0
2016-Sep-23 16:33N 39°54' W 075°12'0 0.3
2016-Sep-23 15:33N 39°54' W 075°12'0 0.2
2016-Sep-23 13:33N 39°54' W 075°12'0 0.0
2016-Sep-23 09:33N 39°54' W 075°12'10 3.3
2016-Sep-23 06:33N 39°49' W 075°24'0 0.0
2016-Sep-23 04:33N 39°49' W 075°24'0 0.0
2016-Sep-23 03:33N 39°49' W 075°24'0 0.0
2016-Sep-23 02:32N 39°49' W 075°24'0 0.0
2016-Sep-23 01:34N 39°49' W 075°24'2 1.6
2016-Sep-23 00:32N 39°48' W 075°26'0 0.0
2016-Sep-22 23:33N 39°48' W 075°26'0 0.1
2016-Sep-22 20:33N 39°48' W 075°26'12 1.5
2016-Sep-22 12:33N 39°54' W 075°12'1 0.2
2016-Sep-22 04:33N 39°55' W 075°13'1 1.0
2016-Sep-22 03:34N 39°54' W 075°13'3 1.0
2016-Sep-22 00:30N 39°54' W 075°08'2 2.0
2016-Sep-21 23:33N 39°56' W 075°08'4 4.4
2016-Sep-21 22:33N 39°59' W 075°04'1 0.2
2016-Sep-21 19:33N 39°59' W 075°05'0 0.0
2016-Sep-21 16:33N 39°59' W 075°05'25 3.6
2016-Sep-21 09:33N 39°43' W 075°31'0 0.0
2016-Sep-21 08:33N 39°43' W 075°31'0 0.0
2016-Sep-21 05:33N 39°43' W 075°31'0 0.0
2016-Sep-21 03:33N 39°43' W 075°31'0 0.0
2016-Sep-21 02:33N 39°43' W 075°31'7 0.8
2016-Sep-20 17:33N 39°48' W 075°25'12 3.9
2016-Sep-20 14:33N 39°53' W 075°11'2 2.1
2016-Sep-20 13:33N 39°54' W 075°08'0 0.0
2016-Sep-20 10:33N 39°54' W 075°08'0 0.0
2016-Sep-20 08:33N 39°54' W 075°08'0 0.0
2016-Sep-20 07:33N 39°54' W 075°08'0 0.0
2016-Sep-20 06:33N 39°54' W 075°08'0 0.0
2016-Sep-20 02:33N 39°54' W 075°08'5 1.6
2016-Sep-19 23:33N 39°52' W 075°14'5 1.2
2016-Sep-19 19:33N 39°54' W 075°09'0 0.0
2016-Sep-19 18:33N 39°54' W 075°09'0 0.0
2016-Sep-19 16:33N 39°54' W 075°09'0 0.0
2016-Sep-19 14:34N 39°54' W 075°09'0 0.0
2016-Sep-19 13:33N 39°54' W 075°09'0 0.0
2016-Sep-19 12:33N 39°54' W 075°09'0 0.0
2016-Sep-19 11:33N 39°54' W 075°09'0 0.0
2016-Sep-19 09:33N 39°54' W 075°09'2 1.2
2016-Sep-19 07:33N 39°53' W 075°12'1 0.6
2016-Sep-19 06:33N 39°54' W 075°12'0 0.0
2016-Sep-19 03:33N 39°54' W 075°12'0 0.0
2016-Sep-19 02:33N 39°54' W 075°12'0 0.0
2016-Sep-19 00:33N 39°54' W 075°12'2 0.3
2016-Sep-18 19:33N 39°55' W 075°13'4 0.9
2016-Sep-18 15:34N 39°54' W 075°08'7 6.6
2016-Sep-18 14:34N 39°51' W 075°16'29 7.2
2016-Sep-18 10:33N 39°32' W 075°45'9 8.7
2016-Sep-18 09:33N 39°30' W 075°56'34 4.8
2016-Sep-18 02:30N 39°15' W 076°34'0 0.0
2016-Sep-18 01:30N 39°15' W 076°34'0 0.0
2016-Sep-18 00:30N 39°15' W 076°34'0 0.0
2016-Sep-17 22:30N 39°15' W 076°34'0 0.0
2016-Sep-17 21:30N 39°15' W 076°34'0 0.0
2016-Sep-17 20:33N 39°15' W 076°34'0 0.0
2016-Sep-17 19:15N 39°15' W 076°34'6 1.0
2016-Sep-17 13:31N 39°11' W 076°28'7 7.4
2016-Sep-17 12:33N 39°09' W 076°20'14 7.0
2016-Sep-17 10:33N 39°21' W 076°10'8 7.7
2016-Sep-17 09:33N 39°25' W 076°02'8 8.0
2016-Sep-17 08:33N 39°30' W 075°55'8 8.5
2016-Sep-17 07:34N 39°32' W 075°44'14 6.9
2016-Sep-17 05:33N 39°42' W 075°31'7 6.9
2016-Sep-17 04:34N 39°48' W 075°26'19 4.8
2016-Sep-17 00:33N 39°59' W 075°06'7 1.0
2016-Sep-16 17:33N 39°53' W 075°11'0 0.0
2016-Sep-16 15:33N 39°53' W 075°11'0 0.0
2016-Sep-16 12:33N 39°53' W 075°11'1 0.2
2016-Sep-16 09:33N 39°54' W 075°12'0 0.0
2016-Sep-16 07:33N 39°54' W 075°12'2 0.5
2016-Sep-16 03:33N 39°53' W 075°09'2 2.0
2016-Sep-16 02:33N 39°54' W 075°12'0 0.0
2016-Sep-16 00:33N 39°54' W 075°12'0 0.0
2016-Sep-15 22:33N 39°54' W 075°12'0 0.0
2016-Sep-15 21:33N 39°54' W 075°12'0 0.0
2016-Sep-15 20:33N 39°54' W 075°12'1 0.3
2016-Sep-15 18:33N 39°54' W 075°12'1 0.1
2016-Sep-15 12:33N 39°54' W 075°12'  

Dump ship's entire track history